createdAt,value
2022-12-17T00:01:20.725Z,6.33
2022-12-17T00:04:07.465Z,7.07
2022-12-17T00:06:53.771Z,7.10
2022-12-17T00:09:48.608Z,6.70
2022-12-17T00:12:36.373Z,6.33
2022-12-17T00:15:22.856Z,6.93
2022-12-17T00:18:09.360Z,6.83
2022-12-17T00:20:56.219Z,6.50
2022-12-17T00:23:42.840Z,6.63
2022-12-17T00:26:29.071Z,6.53
2022-12-17T00:29:15.382Z,6.30
2022-12-17T00:32:02.049Z,6.47
2022-12-17T00:34:48.301Z,6.73
2022-12-17T00:37:34.585Z,6.77
2022-12-17T00:40:21.227Z,6.13
2022-12-17T00:43:07.624Z,6.57
2022-12-17T00:45:53.933Z,7.07
2022-12-17T00:48:40.462Z,6.17
2022-12-17T00:51:27.143Z,6.90
2022-12-17T00:54:13.698Z,6.03
2022-12-17T00:57:00.389Z,6.50
2022-12-17T00:59:47.074Z,6.70
2022-12-17T01:02:33.449Z,6.10
2022-12-17T01:05:19.780Z,5.90
2022-12-17T01:08:06.336Z,6.40
2022-12-17T01:10:52.805Z,5.83
2022-12-17T01:13:39.522Z,5.67
2022-12-17T01:16:27.878Z,5.77
2022-12-17T01:19:14.747Z,5.43
2022-12-17T01:22:01.511Z,5.97
2022-12-17T01:24:47.784Z,5.70
2022-12-17T01:27:34.065Z,5.30
2022-12-17T01:30:22.176Z,5.53
2022-12-17T01:33:08.908Z,6.50
2022-12-17T01:35:55.076Z,5.70
2022-12-17T01:38:43.036Z,6.23
2022-12-17T01:41:29.595Z,5.67
2022-12-17T01:44:15.828Z,6.00
2022-12-17T01:47:07.014Z,6.53
2022-12-17T01:49:53.279Z,6.07
2022-12-17T01:52:39.563Z,6.50
2022-12-17T01:55:26.229Z,6.63
2022-12-17T01:58:12.349Z,6.53
2022-12-17T02:00:59.097Z,6.23
2022-12-17T02:03:45.370Z,6.67
2022-12-17T02:06:43.220Z,6.37
2022-12-17T02:09:40.723Z,6.50
2022-12-17T02:12:27.052Z,6.03
2022-12-17T02:15:17.542Z,5.83
2022-12-17T02:18:11.143Z,6.63
2022-12-17T02:21:12.772Z,6.53
2022-12-17T02:24:22.305Z,6.57
2022-12-17T02:27:11.369Z,7.07
2022-12-17T02:30:06.670Z,6.90
2022-12-17T02:32:53.365Z,6.07
2022-12-17T02:35:43.795Z,7.07
2022-12-17T02:38:56.799Z,6.37
2022-12-17T02:41:48.772Z,6.93
2022-12-17T02:44:37.492Z,7.60
2022-12-17T02:47:25.365Z,6.77
2022-12-17T02:50:11.629Z,7.63
2022-12-17T02:53:00.012Z,6.70
2022-12-17T02:55:46.202Z,7.10
2022-12-17T02:58:32.651Z,7.10
2022-12-17T03:01:19.042Z,7.27
2022-12-17T03:04:05.402Z,6.83
2022-12-17T03:06:52.103Z,6.83
2022-12-17T03:09:38.481Z,7.60
2022-12-17T03:12:24.808Z,7.50
2022-12-17T03:15:11.158Z,7.33
2022-12-17T03:17:57.350Z,8.00
2022-12-17T03:20:43.883Z,8.10
2022-12-17T03:23:30.272Z,8.07
2022-12-17T03:26:21.139Z,7.87
2022-12-17T03:29:07.516Z,6.57
2022-12-17T03:31:53.871Z,7.40
2022-12-17T03:34:40.186Z,8.00
2022-12-17T03:37:26.704Z,7.23
2022-12-17T03:40:13.094Z,6.70
2022-12-17T03:42:59.191Z,7.50
2022-12-17T03:45:45.748Z,7.27
2022-12-17T03:48:33.115Z,7.07
2022-12-17T03:51:19.349Z,7.77
2022-12-17T03:54:05.741Z,7.50
2022-12-17T03:56:52.247Z,7.90
2022-12-17T03:59:38.558Z,6.83
2022-12-17T04:02:24.935Z,7.03
2022-12-17T04:05:16.589Z,6.83
2022-12-17T04:08:06.409Z,6.40
2022-12-17T04:10:52.778Z,6.80
2022-12-17T04:13:41.380Z,7.00
2022-12-17T04:16:28.658Z,7.10
2022-12-17T04:19:15.255Z,7.73
2022-12-17T04:22:01.712Z,7.60
2022-12-17T04:24:48.158Z,7.80
2022-12-17T04:27:34.455Z,7.30
2022-12-17T04:30:20.664Z,6.93
2022-12-17T04:33:07.055Z,8.03
2022-12-17T04:35:53.363Z,6.50
2022-12-17T04:38:39.805Z,7.57
2022-12-17T04:41:26.114Z,7.13
2022-12-17T04:44:12.274Z,6.87
2022-12-17T04:46:58.826Z,7.17
2022-12-17T04:49:45.173Z,7.73
2022-12-17T04:52:31.355Z,7.03
2022-12-17T04:55:18.021Z,7.10
2022-12-17T04:58:04.213Z,6.63
2022-12-17T05:00:50.625Z,7.10
2022-12-17T05:03:37.345Z,8.30
2022-12-17T05:06:24.027Z,6.50
2022-12-17T05:09:10.468Z,8.03
2022-12-17T05:11:56.868Z,7.60
2022-12-17T05:14:43.531Z,7.53
2022-12-17T05:17:29.852Z,7.03
2022-12-17T05:20:16.450Z,7.53
2022-12-17T05:23:02.701Z,7.67
2022-12-17T05:25:48.962Z,7.63
2022-12-17T05:28:35.360Z,7.40
2022-12-17T05:31:21.753Z,6.97
2022-12-17T05:34:08.067Z,7.83
2022-12-17T05:36:54.583Z,7.60
2022-12-17T05:39:41.071Z,7.60
2022-12-17T05:42:27.284Z,7.20
2022-12-17T05:45:13.499Z,7.30
2022-12-17T05:47:59.675Z,7.60
2022-12-17T05:50:46.353Z,7.73
2022-12-17T05:53:32.663Z,7.17
2022-12-17T05:56:19.235Z,8.00
2022-12-17T05:59:05.870Z,7.77
2022-12-17T06:01:52.563Z,7.93
2022-12-17T06:04:38.754Z,7.33
2022-12-17T06:07:25.032Z,7.07
2022-12-17T06:10:11.633Z,7.57
2022-12-17T06:12:57.920Z,6.67
2022-12-17T06:15:44.596Z,7.57
2022-12-17T06:18:31.065Z,7.40
2022-12-17T06:21:17.582Z,7.80
2022-12-17T06:24:04.368Z,7.73
2022-12-17T06:26:50.598Z,7.57
2022-12-17T06:29:37.176Z,7.70
2022-12-17T06:32:23.762Z,7.60
2022-12-17T06:35:09.989Z,8.33
2022-12-17T06:37:56.333Z,7.20
2022-12-17T06:40:42.705Z,7.43
2022-12-17T06:43:29.177Z,6.90
2022-12-17T06:46:15.939Z,7.33
2022-12-17T06:49:02.515Z,7.80
2022-12-17T06:51:49.003Z,7.60
2022-12-17T06:54:35.447Z,7.97
2022-12-17T06:57:21.798Z,7.90
2022-12-17T07:00:08.001Z,7.83
2022-12-17T07:02:54.690Z,7.53
2022-12-17T07:05:41.165Z,7.47
2022-12-17T07:08:27.592Z,8.00
2022-12-17T07:11:14.020Z,7.80
2022-12-17T07:14:00.573Z,7.87
2022-12-17T07:16:46.948Z,7.60
2022-12-17T07:19:33.134Z,8.13
2022-12-17T07:22:19.917Z,8.17
2022-12-17T07:25:06.080Z,9.23
2022-12-17T07:27:52.419Z,8.40
2022-12-17T07:30:38.911Z,9.73
2022-12-17T07:33:26.162Z,9.37
2022-12-17T07:36:13.260Z,10.87
2022-12-17T07:39:00.173Z,11.83
2022-12-17T07:41:46.459Z,10.87
2022-12-17T07:44:33.103Z,10.60
2022-12-17T07:47:19.440Z,10.73
2022-12-17T07:50:05.682Z,9.27
2022-12-17T07:53:02.539Z,9.40
2022-12-17T07:55:49.057Z,9.37
2022-12-17T07:58:35.293Z,8.80
2022-12-17T08:01:21.676Z,7.73
2022-12-17T08:04:12.435Z,8.60
2022-12-17T08:07:04.133Z,8.20
2022-12-17T08:09:53.659Z,7.53
2022-12-17T08:12:39.919Z,8.93
2022-12-17T08:15:26.740Z,9.60
2022-12-17T08:18:24.359Z,9.20
2022-12-17T08:21:12.583Z,8.30
2022-12-17T08:23:58.907Z,8.13
2022-12-17T08:26:48.065Z,9.73
2022-12-17T08:29:34.668Z,10.33
2022-12-17T08:32:20.926Z,8.33
2022-12-17T08:35:07.318Z,8.77
2022-12-17T08:37:53.561Z,8.50
2022-12-17T08:40:40.074Z,8.40
2022-12-17T08:43:27.356Z,10.20
2022-12-17T08:46:27.622Z,13.13
2022-12-17T08:49:13.947Z,9.93
2022-12-17T08:52:00.289Z,8.97
2022-12-17T08:54:46.527Z,9.90
2022-12-17T08:57:32.812Z,9.33
2022-12-17T09:00:19.387Z,7.87
2022-12-17T09:03:05.801Z,8.17
2022-12-17T09:05:52.108Z,7.63
2022-12-17T09:08:38.374Z,8.20
2022-12-17T09:11:24.952Z,10.43
2022-12-17T09:14:11.127Z,8.67
2022-12-17T09:20:44.350Z,8.73
2022-12-17T09:23:30.678Z,9.60
2022-12-17T09:26:17.616Z,9.73
2022-12-17T09:29:03.913Z,11.43
2022-12-17T09:31:51.324Z,10.23
2022-12-17T09:34:37.661Z,8.97
2022-12-17T09:37:23.991Z,6.90
2022-12-17T09:40:10.243Z,7.30
2022-12-17T09:43:16.643Z,8.33
2022-12-17T09:46:06.871Z,7.33
2022-12-17T09:49:00.510Z,7.73
2022-12-17T09:51:48.099Z,7.90
2022-12-17T09:54:41.159Z,7.57
2022-12-17T09:57:28.997Z,9.70
2022-12-17T10:00:15.416Z,7.40
2022-12-17T10:03:02.764Z,6.97
2022-12-17T10:05:51.015Z,8.03
2022-12-17T10:08:39.265Z,7.70
2022-12-17T10:11:44.066Z,7.70
2022-12-17T10:14:48.384Z,9.77
2022-12-17T10:17:36.634Z,8.13
2022-12-17T10:20:23.693Z,9.30
2022-12-17T10:23:10.493Z,8.13
2022-12-17T10:25:57.269Z,8.90
2022-12-17T10:28:44.652Z,8.43
2022-12-17T10:31:35.494Z,8.40
2022-12-17T10:34:21.751Z,8.30
2022-12-17T10:37:09.843Z,8.40
2022-12-17T10:39:56.241Z,9.17
2022-12-17T10:42:50.741Z,9.57
2022-12-17T10:45:59.773Z,8.27
2022-12-17T10:48:47.586Z,8.40
2022-12-17T10:51:45.138Z,9.70
2022-12-17T10:54:50.828Z,8.73
2022-12-17T10:57:52.562Z,14.43
2022-12-17T11:00:56.370Z,9.70
2022-12-17T11:03:44.066Z,9.27
2022-12-17T11:06:36.164Z,9.23
2022-12-17T11:09:25.290Z,9.70
2022-12-17T11:12:11.786Z,9.40
2022-12-17T11:15:03.345Z,8.50
2022-12-17T11:17:50.448Z,8.70
2022-12-17T11:20:45.488Z,8.43
2022-12-17T11:23:38.815Z,8.80
2022-12-17T11:26:34.116Z,8.80
2022-12-17T11:29:20.591Z,9.47
2022-12-17T11:32:27.693Z,9.13
2022-12-17T11:35:36.247Z,10.07
2022-12-17T11:38:44.828Z,8.67
2022-12-17T11:41:34.244Z,9.30
2022-12-17T11:44:59.367Z,9.27
2022-12-17T11:47:58.998Z,9.47
2022-12-17T11:50:57.898Z,8.80
2022-12-17T11:53:53.543Z,9.50
2022-12-17T11:57:10.116Z,8.50
2022-12-17T12:00:04.115Z,8.63
2022-12-17T12:03:19.176Z,9.30
2022-12-17T12:06:19.102Z,16.77
2022-12-17T12:09:31.645Z,9.07
2022-12-17T12:12:21.492Z,8.63
2022-12-17T12:15:27.741Z,9.33
2022-12-17T12:18:24.830Z,8.33
2022-12-17T12:21:37.103Z,8.63
2022-12-17T12:24:42.494Z,9.13
2022-12-17T12:27:44.248Z,8.70
2022-12-17T12:30:33.688Z,8.27
2022-12-17T12:33:35.221Z,8.87
2022-12-17T12:36:23.140Z,8.90
2022-12-17T12:39:15.812Z,9.17
2022-12-17T12:42:16.740Z,8.60
2022-12-17T12:45:15.541Z,8.20
2022-12-17T12:48:16.893Z,8.67
2022-12-17T12:51:19.396Z,8.60
2022-12-17T12:54:19.547Z,8.87
2022-12-17T12:57:06.108Z,8.37
2022-12-17T12:59:54.052Z,9.13
2022-12-17T13:02:40.667Z,8.90
2022-12-17T13:05:35.857Z,7.57
2022-12-17T13:08:10.140Z,8.60
2022-12-17T13:10:38.643Z,8.73
2022-12-17T13:13:32.042Z,9.00
2022-12-17T13:16:29.594Z,7.97
2022-12-17T13:19:05.650Z,8.10
2022-12-17T13:21:33.645Z,8.23
2022-12-17T13:24:11.988Z,8.90
2022-12-17T13:26:42.700Z,9.30
2022-12-17T13:29:25.567Z,9.33
2022-12-17T13:32:06.546Z,7.67
2022-12-17T13:35:08.454Z,9.60
2022-12-17T13:37:44.094Z,7.60
2022-12-17T13:40:35.437Z,9.37
2022-12-17T13:43:03.685Z,9.63
2022-12-17T13:45:31.751Z,9.00
2022-12-17T13:48:00.157Z,8.63
2022-12-17T13:50:35.171Z,9.23
2022-12-17T13:53:11.820Z,9.00
2022-12-17T13:55:39.856Z,9.30
2022-12-17T13:58:07.999Z,12.60
2022-12-17T14:00:36.358Z,9.67
2022-12-17T14:03:12.090Z,8.83
2022-12-17T14:05:43.769Z,9.17
2022-12-17T14:08:15.534Z,9.27
2022-12-17T14:10:53.208Z,9.60
2022-12-17T14:13:21.329Z,9.57
2022-12-17T14:15:50.544Z,8.70
2022-12-17T14:18:20.418Z,8.50
2022-12-17T14:20:48.456Z,8.80
2022-12-17T14:23:29.391Z,9.50
2022-12-17T14:25:57.375Z,10.40
2022-12-17T14:28:36.670Z,10.17
2022-12-17T14:34:08.605Z,9.63
2022-12-17T14:36:38.100Z,10.37
2022-12-17T14:39:30.133Z,9.57
2022-12-17T14:42:18.532Z,9.47
2022-12-17T14:45:00.920Z,9.73
2022-12-17T14:47:36.011Z,8.70
2022-12-17T14:50:08.766Z,9.73
2022-12-17T14:52:57.451Z,9.83
2022-12-17T14:55:32.048Z,10.13
2022-12-17T14:58:15.409Z,9.63
2022-12-17T15:00:48.909Z,10.63
2022-12-17T15:03:22.756Z,9.53
2022-12-17T15:05:56.699Z,10.30
2022-12-17T15:08:24.662Z,9.73
2022-12-17T15:10:52.765Z,10.33
2022-12-17T15:13:20.793Z,12.40
2022-12-17T15:15:49.054Z,12.20
2022-12-17T15:18:16.936Z,13.13
2022-12-17T15:20:44.936Z,12.73
2022-12-17T15:23:22.775Z,10.90
2022-12-17T15:25:52.084Z,12.37
2022-12-17T15:28:20.736Z,12.20
2022-12-17T15:30:49.004Z,11.80
2022-12-17T15:33:17.279Z,12.17
2022-12-17T15:35:45.370Z,12.30
2022-12-17T15:38:13.485Z,12.60
2022-12-17T15:40:41.854Z,12.47
2022-12-17T15:43:13.014Z,13.13
2022-12-17T15:45:46.523Z,12.63
2022-12-17T15:48:16.204Z,12.70
2022-12-17T15:50:44.425Z,12.13
2022-12-17T15:53:12.448Z,12.90
2022-12-17T15:55:40.364Z,11.97
2022-12-17T15:58:08.669Z,12.03
2022-12-17T16:00:36.698Z,12.30
2022-12-17T16:03:04.869Z,11.63
2022-12-17T16:05:33.008Z,13.00
2022-12-17T16:08:05.453Z,21.33
2022-12-17T16:10:33.764Z,19.30
2022-12-17T16:13:01.783Z,14.73
2022-12-17T16:15:29.806Z,13.80
2022-12-17T16:17:58.111Z,12.70
2022-12-17T16:20:27.757Z,13.50
2022-12-17T16:22:55.805Z,12.67
2022-12-17T16:25:24.020Z,13.27
2022-12-17T16:27:52.517Z,12.97
2022-12-17T16:30:20.534Z,13.40
2022-12-17T16:32:48.557Z,14.90
2022-12-17T16:35:17.206Z,14.17
2022-12-17T16:37:45.262Z,13.93
2022-12-17T16:40:13.485Z,12.23
2022-12-17T16:42:41.563Z,11.87
2022-12-17T16:45:10.212Z,11.87
2022-12-17T16:47:38.322Z,11.53
2022-12-17T16:50:06.630Z,11.60
2022-12-17T16:52:36.900Z,12.40
2022-12-17T16:55:05.197Z,19.42
2022-12-17T16:57:33.149Z,12.60
2022-12-17T17:00:01.557Z,11.60
2022-12-17T17:02:29.679Z,12.40
2022-12-17T17:04:57.764Z,12.67
2022-12-17T17:07:25.853Z,13.23
2022-12-17T17:09:53.898Z,11.63
2022-12-17T17:12:22.204Z,11.47
2022-12-17T17:14:53.073Z,12.83
2022-12-17T17:17:54.761Z,12.03
2022-12-17T17:20:09.252Z,12.80
2022-12-17T17:22:37.470Z,12.57
2022-12-17T17:25:06.345Z,12.83
2022-12-17T17:27:34.410Z,12.97
2022-12-17T17:30:04.170Z,13.50
2022-12-17T17:32:32.685Z,12.43
2022-12-17T17:35:00.803Z,12.70
2022-12-17T17:37:29.494Z,13.70
2022-12-17T17:39:57.652Z,13.83
2022-12-17T17:42:25.695Z,14.83
2022-12-17T17:44:55.165Z,13.23
2022-12-17T17:47:23.272Z,13.30
2022-12-17T17:49:51.285Z,13.63
2022-12-17T17:52:19.521Z,13.63
2022-12-17T17:54:48.361Z,14.73
2022-12-17T17:57:16.294Z,17.13
2022-12-17T17:59:44.379Z,15.70
2022-12-17T18:02:12.570Z,14.73
2022-12-17T18:04:41.345Z,13.97
2022-12-17T18:07:24.671Z,13.33
2022-12-17T18:09:53.429Z,14.43
2022-12-17T18:12:39.893Z,14.83
2022-12-17T18:15:17.246Z,14.43
2022-12-17T18:17:46.692Z,15.63
2022-12-17T18:20:15.329Z,15.20
2022-12-17T18:22:47.957Z,15.13
2022-12-17T18:25:17.308Z,14.47
2022-12-17T18:27:45.771Z,14.20
2022-12-17T18:30:14.598Z,14.17
2022-12-17T18:32:42.771Z,14.10
2022-12-17T18:35:11.145Z,15.03
2022-12-17T18:37:39.326Z,15.87
2022-12-17T18:40:07.941Z,15.20
2022-12-17T18:42:55.071Z,14.57
2022-12-17T18:45:23.337Z,14.27
2022-12-17T18:47:52.395Z,16.43
2022-12-17T18:50:20.477Z,15.30
2022-12-17T18:52:48.695Z,16.73
2022-12-17T18:55:17.639Z,15.63
2022-12-17T18:57:45.716Z,14.90
2022-12-17T19:00:13.982Z,14.47
2022-12-17T19:02:42.264Z,14.40
2022-12-17T19:05:10.630Z,15.47
2022-12-17T19:07:38.525Z,14.10
2022-12-17T19:10:07.003Z,15.83
2022-12-17T19:12:35.184Z,13.73
2022-12-17T19:15:03.174Z,17.10
2022-12-17T19:17:31.113Z,16.30
2022-12-17T19:19:59.112Z,16.67
2022-12-17T19:22:27.039Z,16.00
2022-12-17T19:24:55.213Z,14.77
2022-12-17T19:27:23.222Z,15.30
2022-12-17T19:29:51.281Z,14.87
2022-12-17T19:32:19.248Z,16.00
2022-12-17T19:34:47.318Z,15.23
2022-12-17T19:37:15.433Z,20.57
2022-12-17T19:39:43.449Z,16.00
2022-12-17T19:42:25.705Z,16.33
2022-12-17T19:44:56.977Z,16.13
2022-12-17T19:47:25.005Z,16.50
2022-12-17T19:49:53.175Z,17.10
2022-12-17T19:52:21.612Z,16.10
2022-12-17T19:54:50.132Z,15.40
2022-12-17T19:57:18.198Z,16.47
2022-12-17T19:59:46.244Z,16.93
2022-12-17T20:02:14.472Z,15.67
2022-12-17T20:04:42.558Z,16.70
2022-12-17T20:07:10.662Z,16.53
2022-12-17T20:09:38.696Z,16.80
2022-12-17T20:12:06.918Z,17.13
2022-12-17T20:14:36.738Z,16.23
2022-12-17T20:17:06.403Z,17.30
2022-12-17T20:19:36.203Z,16.53
2022-12-17T20:22:05.709Z,17.07
2022-12-17T20:24:33.703Z,17.30
2022-12-17T20:27:02.177Z,15.93
2022-12-17T20:29:30.451Z,15.83
2022-12-17T20:32:02.515Z,16.20
2022-12-17T20:34:30.754Z,16.20
2022-12-17T20:36:58.716Z,16.27
2022-12-17T20:39:28.383Z,16.27
2022-12-17T20:41:57.388Z,16.60
2022-12-17T20:44:28.576Z,15.97
2022-12-17T20:46:56.659Z,16.83
2022-12-17T20:49:24.563Z,17.07
2022-12-17T20:51:52.471Z,16.23
2022-12-17T20:54:21.763Z,16.83
2022-12-17T20:56:49.812Z,16.67
2022-12-17T20:59:18.856Z,22.67
2022-12-17T21:01:51.507Z,16.17
2022-12-17T21:04:22.575Z,16.97
2022-12-17T21:06:50.602Z,15.93
2022-12-17T21:09:21.274Z,17.20
2022-12-17T21:11:49.301Z,15.80
2022-12-17T21:14:18.377Z,17.07
2022-12-17T21:16:46.620Z,17.50
2022-12-17T21:19:21.939Z,15.57
2022-12-17T21:21:50.518Z,18.37
2022-12-17T21:24:19.583Z,16.37
2022-12-17T21:26:48.380Z,17.17
2022-12-17T21:29:16.911Z,16.63
2022-12-17T21:31:50.255Z,17.23
2022-12-17T21:34:22.879Z,16.57
2022-12-17T21:36:51.510Z,17.43
2022-12-17T21:39:19.893Z,16.43
2022-12-17T21:42:07.941Z,18.63
2022-12-17T21:44:36.842Z,17.53
2022-12-17T21:47:04.971Z,17.70
2022-12-17T21:49:33.522Z,16.30
2022-12-17T21:52:08.040Z,16.90
2022-12-17T21:54:39.002Z,15.97
2022-12-17T21:57:07.230Z,17.53
2022-12-17T21:59:35.238Z,17.83
2022-12-17T22:02:03.399Z,16.87
2022-12-17T22:04:31.966Z,18.03
2022-12-17T22:07:02.726Z,17.33
2022-12-17T22:10:19.396Z,16.93
2022-12-17T22:12:50.645Z,17.10
2022-12-17T22:15:18.866Z,17.57
2022-12-17T22:17:47.623Z,16.97
2022-12-17T22:20:17.592Z,17.63
2022-12-17T22:22:47.282Z,18.33
2022-12-17T22:25:15.869Z,17.83
2022-12-17T22:27:44.234Z,19.07
2022-12-17T22:30:33.568Z,17.50
2022-12-17T22:33:01.800Z,17.47
2022-12-17T22:38:52.845Z,18.13
2022-12-17T22:43:14.483Z,17.80
2022-12-17T22:44:35.376Z,18.33
2022-12-17T22:44:42.469Z,17.87
2022-12-17T22:47:12.836Z,17.77
2022-12-17T22:49:41.210Z,17.50
2022-12-17T22:52:11.917Z,18.50
2022-12-17T22:54:39.937Z,18.07
2022-12-17T22:57:30.681Z,16.43
2022-12-17T22:59:56.090Z,19.17
2022-12-17T23:02:24.600Z,17.60
2022-12-17T23:04:52.530Z,18.33
2022-12-17T23:07:20.311Z,18.87
2022-12-17T23:09:48.392Z,18.53
2022-12-17T23:12:34.769Z,18.27
2022-12-17T23:15:02.554Z,17.87
2022-12-17T23:17:30.414Z,19.13
2022-12-17T23:19:58.281Z,17.83
2022-12-17T23:22:26.266Z,18.77
2022-12-17T23:24:54.098Z,18.60
2022-12-17T23:27:21.980Z,17.03
2022-12-17T23:29:49.848Z,17.43
2022-12-17T23:32:17.860Z,17.40
2022-12-17T23:34:45.726Z,37.23
2022-12-17T23:37:13.660Z,18.50
2022-12-17T23:39:41.554Z,18.43
2022-12-17T23:42:09.357Z,17.07
2022-12-17T23:44:37.260Z,17.57
2022-12-17T23:47:05.270Z,19.10
2022-12-17T23:49:33.100Z,18.07
2022-12-17T23:52:00.878Z,19.83
2022-12-17T23:54:28.957Z,18.93
2022-12-17T23:56:56.875Z,17.37
2022-12-17T23:59:24.668Z,18.23
